Time;durP1;ratioP1;P1;durP2;ratioP2;P2;SDS_P1;SDS_P2;PMS_P1;PMS_P2;Temp;Humidity;BMP_temperature;BMP_pressure;BME280_temperature;BME280_humidity;BME280_pressure;Samples;Min_cycle;Max_cycle;Signal;HPM_P1;HPM_P2
2022/10/14 00:02:10;;;;;;;70.67;37.00;;;;;;;11.28;100.00;101005.63;7387446;19;20733;-56
2022/10/14 00:04:39;;;;;;;70.10;36.50;;;;;;;11.25;100.00;101001.19;7398327;19;20384;-56
2022/10/14 00:07:09;;;;;;;69.70;35.70;;;;;;;11.27;100.00;100999.56;7395126;19;20439;-59
2022/10/14 00:09:38;;;;;;;65.13;35.30;;;;;;;11.28;100.00;100997.88;7398654;19;20952;-54
2022/10/14 00:12:08;;;;;;;79.60;38.53;;;;;;;11.27;100.00;100998.69;7396655;19;20932;-57
2022/10/14 00:14:37;;;;;;;71.40;35.80;;;;;;;11.29;100.00;100991.88;7398405;19;20393;-57
2022/10/14 00:17:09;;;;;;;76.23;37.47;;;;;;;11.30;100.00;100999.69;7396221;19;20475;-59
2022/10/14 00:19:39;;;;;;;68.33;38.07;;;;;;;11.28;100.00;100997.88;7398610;19;20901;-59
2022/10/14 00:22:08;;;;;;;68.77;34.77;;;;;;;11.28;100.00;101006.47;7394945;19;20440;-57
2022/10/14 00:24:38;;;;;;;81.57;36.87;;;;;;;11.29;100.00;101007.38;7398192;19;20398;-55
2022/10/14 00:27:07;;;;;;;70.93;35.93;;;;;;;11.25;100.00;101001.19;7394098;19;20421;-55
2022/10/14 00:29:37;;;;;;;90.47;42.13;;;;;;;11.29;100.00;100997.91;7402305;19;20401;-54
2022/10/14 00:32:09;;;;;;;74.77;37.60;;;;;;;11.28;100.00;101001.31;7386665;19;20436;-58
2022/10/14 00:34:39;;;;;;;69.57;35.67;;;;;;;11.27;100.00;100998.69;7398995;19;20393;-55
2022/10/14 00:37:08;;;;;;;66.87;35.73;;;;;;;11.26;100.00;101008.13;7394289;19;20424;-58
2022/10/14 00:39:37;;;;;;;76.47;38.17;;;;;;;11.28;100.00;101011.66;7397959;19;20386;-60
2022/10/14 00:42:07;;;;;;;73.10;37.20;;;;;;;11.25;100.00;101008.06;7394591;19;20436;-56
2022/10/14 00:45:00;;;;;;;79.50;36.57;;;;;;;11.28;100.00;101010.78;7397261;19;20418;-60
2022/10/14 00:47:33;;;;;;;69.73;35.57;;;;;;;11.26;100.00;101010.72;7393798;19;20445;-61
2022/10/14 00:50:02;;;;;;;76.33;38.23;;;;;;;11.25;100.00;101014.13;7397530;19;20741;-55
2022/10/14 00:52:32;;;;;;;69.40;36.27;;;;;;;11.21;100.00;101020.84;7395039;19;20467;-60
2022/10/14 00:55:03;;;;;;;70.90;35.93;;;;;;;11.23;100.00;101009.69;7397375;19;20390;-55
2022/10/14 00:57:33;;;;;;;75.20;37.60;;;;;;;11.24;100.00;101008.88;7394130;19;20437;-58
2022/10/14 01:00:07;;;;;;;68.63;35.70;;;;;;;11.22;100.00;101011.38;7397062;19;20410;-55
2022/10/14 01:02:39;;;;;;;68.97;36.00;;;;;;;11.23;100.00;101004.53;7375300;19;20421;-60
2022/10/14 01:05:11;;;;;;;78.57;38.80;;;;;;;11.21;100.00;101005.34;7396660;19;20390;-60
2022/10/14 01:07:47;;;;;;;84.57;37.70;;;;;;;11.20;100.00;101013.91;7392130;19;20405;-63
2022/10/14 01:10:22;;;;;;;80.00;38.80;;;;;;;11.19;100.00;101012.13;7396735;19;20760;-55
2022/10/14 01:12:59;;;;;;;78.20;37.53;;;;;;;11.20;100.00;101007.84;7393186;19;20412;-58
2022/10/14 01:15:33;;;;;;;80.37;35.67;;;;;;;11.19;100.00;101004.38;7396701;19;20427;-57
2022/10/14 01:18:16;;;;;;;87.27;37.23;;;;;;;11.20;100.00;101002.69;7393103;19;20440;-63
2022/10/14 01:21:03;;;;;;;87.87;38.37;;;;;;;11.20;100.00;101000.09;7395623;19;20388;-61
2022/10/14 01:23:44;;;;;;;83.17;37.70;;;;;;;11.18;100.00;100997.44;7393220;19;20436;-55
2022/10/14 01:26:41;;;;;;;81.50;39.77;;;;;;;11.17;100.00;100994.78;7395188;19;20484;-59
2022/10/14 01:29:19;;;;;;;81.07;37.67;;;;;;;11.17;100.00;100979.31;7392749;19;20970;-56
2022/10/14 01:31:58;;;;;;;83.50;39.87;;;;;;;11.17;100.00;100977.63;7385881;19;20435;-54
2022/10/14 01:34:32;;;;;;;78.67;37.40;;;;;;;11.14;100.00;100969.75;7395619;19;20424;-55
2022/10/14 01:37:06;;;;;;;88.20;39.47;;;;;;;11.17;100.00;100967.28;7390232;19;20448;-58
2022/10/14 01:39:40;;;;;;;81.27;37.40;;;;;;;11.14;100.00;100959.44;7399907;19;20756;-61
2022/10/14 01:42:11;;;;;;;90.23;39.50;;;;;;;11.16;100.00;100952.63;7392483;19;20419;-63
2022/10/14 01:44:44;;;;;;;87.10;39.80;;;;;;;11.14;100.00;100956.84;7395304;19;20394;-60
2022/10/14 01:47:20;;;;;;;88.20;39.90;;;;;;;11.13;100.00;100944.72;7392378;19;20469;-62
2022/10/14 01:49:53;;;;;;;87.30;38.63;;;;;;;11.13;100.00;100946.44;7395525;19;20388;-57
2022/10/14 01:52:28;;;;;;;96.70;41.23;;;;;;;11.14;100.00;100941.34;7392602;19;20426;-56
2022/10/14 01:55:01;;;;;;;98.37;39.73;;;;;;;11.13;100.00;100936.97;7395219;19;20404;-55
2022/10/14 01:57:33;;;;;;;87.47;39.43;;;;;;;11.14;100.00;100923.28;7391021;19;20437;-59
2022/10/14 02:00:04;;;;;;;86.37;39.10;;;;;;;11.16;100.00;100915.56;7395155;19;20408;-62
2022/10/14 02:02:37;;;;;;;94.07;39.67;;;;;;;11.11;100.00;100915.38;7388099;19;20804;-58
2022/10/14 02:05:10;;;;;;;90.67;38.83;;;;;;;11.14;100.00;100909.47;7394721;19;20382;-58
2022/10/14 02:07:42;;;;;;;82.67;38.60;;;;;;;11.14;100.00;100904.28;7390929;19;20416;-58
2022/10/14 02:10:17;;;;;;;90.00;38.50;;;;;;;11.12;100.00;100899.06;7394665;19;20418;-62
2022/10/14 02:12:51;;;;;;;94.00;40.87;;;;;;;11.12;100.00;100901.66;7391172;19;20411;-57
2022/10/14 02:15:24;;;;;;;91.97;39.00;;;;;;;11.12;100.00;100901.66;7396324;19;20406;-59
2022/10/14 02:18:01;;;;;;;89.30;39.43;;;;;;;11.13;100.00;100895.66;7390939;19;20428;-56
2022/10/14 02:20:34;;;;;;;90.27;39.63;;;;;;;11.13;100.00;100893.06;7396055;19;20406;-57
2022/10/14 02:23:08;;;;;;;92.43;40.33;;;;;;;11.16;100.00;100882.00;7391071;19;20427;-55
2022/10/14 02:25:40;;;;;;;87.10;38.97;;;;;;;11.17;100.00;100883.75;7394058;19;20381;-60
2022/10/14 02:28:10;;;;;;;92.67;40.97;;;;;;;11.18;100.00;100881.25;7387923;19;20458;-54
2022/10/14 02:30:43;;;;;;;95.77;41.90;;;;;;;11.20;100.00;100874.47;7393341;19;20390;-57
2022/10/14 02:33:19;;;;;;;103.10;41.10;;;;;;;11.21;100.00;100875.31;7388421;19;20440;-59
2022/10/14 02:35:50;;;;;;;91.17;39.20;;;;;;;11.22;100.00;100882.25;7397683;19;20414;-61
2022/10/14 02:38:20;;;;;;;87.93;39.17;;;;;;;11.21;100.00;100876.22;7389760;19;20440;-57
2022/10/14 02:40:51;;;;;;;96.17;40.17;;;;;;;11.19;100.00;100877.84;7393056;19;20417;-62
2022/10/14 02:43:21;;;;;;;100.23;41.00;;;;;;;11.17;100.00;100889.81;7391155;19;20404;-57
2022/10/14 02:45:50;;;;;;;91.30;41.70;;;;;;;11.19;100.00;100876.97;7393780;19;20394;-58
2022/10/14 02:48:22;;;;;;;95.27;38.33;;;;;;;11.17;100.00;100894.09;7393549;19;20452;-59
2022/10/14 02:50:51;;;;;;;86.87;40.97;;;;;;;11.18;100.00;100886.41;7392534;19;20384;-61
2022/10/14 02:53:21;;;;;;;84.73;38.10;;;;;;;11.18;100.00;100891.56;7390801;19;20563;-57
2022/10/14 02:55:50;;;;;;;84.50;38.80;;;;;;;11.17;100.00;100888.91;7393953;19;20421;-59
2022/10/14 02:58:20;;;;;;;90.40;39.13;;;;;;;11.17;100.00;100891.50;7388998;19;20450;-61
2022/10/14 03:00:50;;;;;;;91.80;40.47;;;;;;;11.16;100.00;100895.81;7392360;19;20410;-62
2022/10/14 03:03:22;;;;;;;82.17;38.77;;;;;;;11.16;100.00;100900.97;7391014;19;20821;-62
2022/10/14 03:05:52;;;;;;;92.03;40.17;;;;;;;11.18;100.00;100886.41;7392333;19;20409;-56
2022/10/14 03:08:21;;;;;;;93.87;39.67;;;;;;;11.18;100.00;100890.72;7387608;19;20429;-58
2022/10/14 03:10:50;;;;;;;97.00;40.67;;;;;;;11.17;100.00;100884.66;7391193;19;20397;-62
2022/10/14 03:13:20;;;;;;;92.83;43.03;;;;;;;11.18;100.00;100883.81;7389663;19;20441;-59
2022/10/14 03:15:50;;;;;;;92.23;38.40;;;;;;;11.19;100.00;100880.41;7392198;19;20410;-58
2022/10/14 03:18:23;;;;;;;96.50;41.63;;;;;;;11.15;100.00;100878.53;7388646;19;20425;-58
2022/10/14 03:20:52;;;;;;;83.97;39.80;;;;;;;11.18;100.00;100882.97;7391139;19;20387;-59
2022/10/14 03:23:21;;;;;;;95.43;44.13;;;;;;;11.17;100.00;100882.06;7388954;19;20407;-58
2022/10/14 03:25:51;;;;;;;95.97;42.00;;;;;;;11.18;100.00;100882.97;7391800;19;20397;-61
2022/10/14 03:28:20;;;;;;;86.27;40.77;;;;;;;11.16;100.00;100880.31;7387426;19;20441;-55
2022/10/14 03:30:50;;;;;;;91.47;40.70;;;;;;;11.18;100.00;100885.53;7398107;19;20444;-55
2022/10/14 03:33:22;;;;;;;94.27;41.20;;;;;;;11.15;100.00;100886.28;7395236;19;21235;-55
2022/10/14 03:35:55;;;;;;;79.30;39.33;;;;;;;11.18;100.00;100880.38;7402963;19;20396;-58
2022/10/14 03:38:24;;;;;;;88.87;39.03;;;;;;;11.16;100.00;100882.88;7394208;19;20433;-57
2022/10/14 03:40:53;;;;;;;82.07;39.40;;;;;;;11.14;100.00;100884.53;7399609;19;20385;-55
2022/10/14 03:43:23;;;;;;;81.30;37.57;;;;;;;11.16;100.00;100882.00;7398072;19;20452;-55
2022/10/14 03:45:52;;;;;;;96.47;42.37;;;;;;;11.20;100.00;100873.56;7398807;19;20748;-62
2022/10/14 03:48:24;;;;;;;96.07;40.23;;;;;;;11.17;100.00;100873.41;7393851;19;20437;-57
2022/10/14 03:50:54;;;;;;;90.50;39.67;;;;;;;11.17;100.00;100873.41;7397820;19;20420;-57
2022/10/14 03:53:23;;;;;;;91.43;39.17;;;;;;;11.15;100.00;100862.16;7395618;19;20442;-57
2022/10/14 03:55:53;;;;;;;94.07;41.60;;;;;;;11.15;100.00;100865.63;7398138;19;20397;-57
2022/10/14 03:58:22;;;;;;;93.67;41.37;;;;;;;11.14;100.00;100858.72;7394135;19;20421;-54
2022/10/14 04:00:51;;;;;;;99.73;40.33;;;;;;;11.15;100.00;100847.56;7397270;19;20398;-60
2022/10/14 04:03:21;;;;;;;92.50;40.97;;;;;;;11.18;100.00;100849.38;7388098;19;20451;-58
2022/10/14 04:05:53;;;;;;;95.27;40.10;;;;;;;11.26;100.00;100845.41;7397922;19;20407;-60
2022/10/14 04:08:22;;;;;;;99.43;42.20;;;;;;;11.31;100.00;100838.72;7393068;19;20437;-53
2022/10/14 04:10:54;;;;;;;98.43;42.07;;;;;;;11.33;100.00;100842.25;7396871;19;20769;-56
2022/10/14 04:13:23;;;;;;;99.70;39.20;;;;;;;11.44;100.00;100832.34;7398047;19;20437;-59
2022/10/14 04:15:53;;;;;;;87.07;37.87;;;;;;;11.57;100.00;100822.47;7397828;19;20750;-60
2022/10/14 04:18:22;;;;;;;101.73;41.37;;;;;;;11.59;100.00;100820.84;7393153;19;20466;-57
2022/10/14 04:20:54;;;;;;;81.20;39.20;;;;;;;11.60;100.00;100822.59;7396730;19;20387;-56
2022/10/14 04:23:23;;;;;;;90.30;39.30;;;;;;;11.58;100.00;100825.13;7394632;19;20409;-60
2022/10/14 04:25:53;;;;;;;105.53;44.00;;;;;;;11.46;100.00;100817.78;7397564;19;20389;-56
2022/10/14 04:28:22;;;;;;;99.70;44.47;;;;;;;11.39;100.00;100818.34;7390891;19;20433;-56
2022/10/14 04:30:52;;;;;;;94.20;42.93;;;;;;;11.41;100.00;100837.38;7398813;19;20390;-58
2022/10/14 04:33:21;;;;;;;93.30;40.87;;;;;;;11.29;100.00;100847.22;7387886;19;20426;-55
2022/10/14 04:35:58;;;;;;;92.07;41.90;;;;;;;11.27;100.00;100833.38;7400887;19;20397;-58
2022/10/14 04:38:28;;;;;;;100.77;41.77;;;;;;;11.34;100.00;100838.84;7392766;19;20421;-59
2022/10/14 04:40:58;;;;;;;92.90;40.60;;;;;;;11.38;100.00;100850.16;7394799;19;20395;-56
2022/10/14 04:43:27;;;;;;;96.13;42.00;;;;;;;11.48;100.00;100844.56;7394445;19;20435;-56
2022/10/14 04:45:56;;;;;;;100.13;44.47;;;;;;;11.34;100.00;100841.41;7397170;19;20389;-60
2022/10/14 04:48:26;;;;;;;93.10;40.60;;;;;;;11.29;100.00;100852.41;7392130;19;20429;-60
2022/10/14 04:50:58;;;;;;;87.93;38.97;;;;;;;11.23;100.00;100862.47;7395715;19;20400;-57
2022/10/14 04:53:27;;;;;;;93.00;39.33;;;;;;;11.23;100.00;100872.81;7393685;19;20445;-56
2022/10/14 04:55:57;;;;;;;90.50;38.53;;;;;;;11.21;100.00;100880.50;7400985;19;20420;-58
2022/10/14 04:58:26;;;;;;;86.63;39.20;;;;;;;11.17;100.00;100884.66;7392517;19;20444;-53
2022/10/14 05:00:55;;;;;;;81.13;37.27;;;;;;;11.16;100.00;100888.06;7395469;19;20770;-52
2022/10/14 05:03:25;;;;;;;82.07;38.20;;;;;;;11.19;100.00;100884.72;7392281;19;20405;-55
2022/10/14 05:05:54;;;;;;;86.20;38.77;;;;;;;11.17;100.00;100876.91;7393768;19;20396;-58
2022/10/14 05:08:26;;;;;;;87.97;37.90;;;;;;;11.17;100.00;100884.66;7390173;19;20437;-57
2022/10/14 05:10:56;;;;;;;91.73;39.97;;;;;;;11.18;100.00;100876.06;7392742;19;20394;-59
2022/10/14 05:13:25;;;;;;;88.47;38.87;;;;;;;11.20;100.00;100879.63;7393120;19;20942;-63
2022/10/14 05:15:55;;;;;;;90.50;37.73;;;;;;;11.19;100.00;100877.84;7395733;19;20422;-55
2022/10/14 05:18:24;;;;;;;90.70;38.13;;;;;;;11.20;100.00;100873.56;7391455;19;20429;-57
2022/10/14 05:20:53;;;;;;;83.53;37.67;;;;;;;11.18;100.00;100870.91;7394496;19;20379;-59
2022/10/14 05:23:25;;;;;;;107.67;38.67;;;;;;;11.18;100.00;100870.91;7392752;19;20413;-57
2022/10/14 05:25:55;;;;;;;92.27;39.23;;;;;;;11.13;100.00;100872.41;7395524;19;20405;-56
2022/10/14 05:28:24;;;;;;;92.73;38.80;;;;;;;11.15;100.00;100875.06;7391769;19;20440;-60
2022/10/14 05:30:54;;;;;;;93.57;38.70;;;;;;;11.14;100.00;100873.31;7392347;19;20396;-55
2022/10/14 05:33:23;;;;;;;98.10;39.57;;;;;;;11.12;100.00;100870.66;7390689;19;20442;-61
2022/10/14 05:35:53;;;;;;;97.40;38.83;;;;;;;11.12;100.00;100875.81;7398140;19;20409;-59
2022/10/14 05:38:32;;;;;;;91.80;38.83;;;;;;;11.14;100.00;100876.78;7391062;19;20433;-59
2022/10/14 05:41:02;;;;;;;96.23;39.90;;;;;;;11.16;100.00;100876.81;7393943;19;20397;-60
2022/10/14 05:43:31;;;;;;;102.23;41.47;;;;;;;11.17;100.00;100871.72;7391720;19;20417;-56
2022/10/14 05:46:02;;;;;;;95.37;39.57;;;;;;;11.14;100.00;100871.63;7394850;19;20404;-55
2022/10/14 05:48:32;;;;;;;89.77;37.23;;;;;;;11.14;100.00;100866.47;7390174;19;20426;-52
2022/10/14 05:51:02;;;;;;;98.33;38.90;;;;;;;11.12;100.00;100870.66;7395604;19;20414;-59
2022/10/14 05:53:34;;;;;;;107.07;40.10;;;;;;;11.13;100.00;100872.41;7389184;19;20977;-55
2022/10/14 05:56:04;;;;;;;97.50;38.70;;;;;;;11.13;100.00;100867.25;7393525;19;21037;-61
2022/10/14 05:58:34;;;;;;;94.07;37.27;;;;;;;11.10;100.00;100861.97;7389849;19;20417;-57
2022/10/14 06:01:04;;;;;;;100.13;38.30;;;;;;;11.11;100.00;100861.16;7393122;19;20432;-63
2022/10/14 06:03:34;;;;;;;99.70;38.27;;;;;;;11.11;100.00;100857.69;7391241;19;20445;-57
2022/10/14 06:06:03;;;;;;;104.00;37.10;;;;;;;11.08;100.00;100858.47;7393997;19;20389;-61
2022/10/14 06:08:35;;;;;;;99.70;37.43;;;;;;;11.11;100.00;100858.56;7391753;19;20899;-63
2022/10/14 06:11:06;;;;;;;89.87;38.17;;;;;;;11.10;100.00;100850.75;7396048;19;20393;-60
2022/10/14 06:13:35;;;;;;;101.27;37.90;;;;;;;11.11;100.00;100844.75;7393275;19;20435;-55
2022/10/14 06:16:05;;;;;;;101.73;38.20;;;;;;;11.12;100.00;100837.09;7393414;19;20424;-61
2022/10/14 06:18:35;;;;;;;101.07;39.30;;;;;;;11.10;100.00;100831.00;7390317;19;20432;-58
2022/10/14 06:21:06;;;;;;;99.13;38.07;;;;;;;11.08;100.00;100833.50;7392446;19;20385;-57
2022/10/14 06:23:38;;;;;;;102.50;39.40;;;;;;;11.12;100.00;100816.44;7392309;19;20412;-57
2022/10/14 06:26:08;;;;;;;107.17;37.90;;;;;;;11.13;100.00;100820.78;7393028;19;20415;-54
2022/10/14 06:28:38;;;;;;;109.70;39.67;;;;;;;11.12;100.00;100813.84;7393699;19;20438;-60
2022/10/14 06:31:08;;;;;;;105.73;38.30;;;;;;;11.13;100.00;100807.00;7390719;19;20475;-54
2022/10/14 06:33:37;;;;;;;112.77;40.90;;;;;;;11.11;100.00;100806.94;7392077;19;20413;-60
2022/10/14 06:36:08;;;;;;;92.73;32.60;;;;;;;11.12;100.00;100793.19;7396958;19;20412;-61
2022/10/14 06:38:40;;;;;;;103.67;38.37;;;;;;;11.12;100.00;100792.34;7390873;19;20421;-56
2022/10/14 06:41:10;;;;;;;126.30;42.63;;;;;;;11.14;100.00;100791.56;7391673;19;20392;-58
2022/10/14 06:43:39;;;;;;;116.63;42.00;;;;;;;11.12;100.00;100798.34;7390643;19;20984;-57
2022/10/14 06:46:09;;;;;;;125.67;43.10;;;;;;;11.11;100.00;100786.28;7391989;19;20393;-53
2022/10/14 06:48:38;;;;;;;126.80;46.00;;;;;;;11.12;100.00;100784.59;7394628;19;20467;-58
2022/10/14 06:51:08;;;;;;;117.13;39.83;;;;;;;11.12;100.00;100784.59;7389994;19;20980;-52
2022/10/14 06:53:40;;;;;;;124.30;42.57;;;;;;;11.14;100.00;100786.41;7391692;19;20428;-59
2022/10/14 06:56:11;;;;;;;123.10;41.07;;;;;;;11.12;100.00;100785.44;7392275;19;20940;-58
2022/10/14 06:58:40;;;;;;;113.40;43.77;;;;;;;11.12;100.00;100772.53;7390025;19;20413;-55
2022/10/14 07:01:10;;;;;;;125.40;43.60;;;;;;;11.15;100.00;100777.84;7390897;19;20414;-59
2022/10/14 07:03:40;;;;;;;148.77;47.10;;;;;;;11.19;100.00;100778.84;7390570;19;20435;-61
2022/10/14 07:06:10;;;;;;;111.83;42.13;;;;;;;11.16;100.00;100787.34;7391774;19;20424;-58
2022/10/14 07:08:42;;;;;;;124.13;44.57;;;;;;;11.15;100.00;100787.28;7389852;19;20412;-53
2022/10/14 07:11:12;;;;;;;120.87;43.73;;;;;;;11.18;100.00;100787.41;7386951;19;20413;-59
2022/10/14 07:13:41;;;;;;;121.20;43.00;;;;;;;11.18;100.00;100793.44;7391615;19;20405;-54
2022/10/14 07:16:11;;;;;;;116.30;42.30;;;;;;;11.21;100.00;100796.16;7388841;19;20396;-62
2022/10/14 07:18:40;;;;;;;122.00;46.70;;;;;;;11.25;100.00;100799.75;7389738;19;20979;-56
2022/10/14 07:21:10;;;;;;;123.57;44.20;;;;;;;11.23;100.00;100808.25;7390645;19;21027;-60
2022/10/14 07:23:42;;;;;;;111.53;43.63;;;;;;;11.26;100.00;100821.25;7390708;19;20943;-59
2022/10/14 07:26:11;;;;;;;117.77;43.90;;;;;;;11.27;100.00;100812.72;7386845;19;20389;-63
2022/10/14 07:28:40;;;;;;;116.00;46.40;;;;;;;11.28;100.00;100815.34;7389383;19;20412;-60
2022/10/14 07:31:11;;;;;;;125.60;46.57;;;;;;;11.28;100.00;100820.50;7389084;19;20390;-59
2022/10/14 07:33:42;;;;;;;120.43;44.83;;;;;;;11.32;100.00;100834.44;7390794;19;20944;-55
2022/10/14 07:36:13;;;;;;;111.13;45.10;;;;;;;11.31;100.00;100835.25;7391957;19;20742;-56
2022/10/14 07:38:50;;;;;;;125.67;45.70;;;;;;;11.30;100.00;100838.66;7392166;19;20424;-58
2022/10/14 07:41:22;;;;;;;125.93;43.17;;;;;;;11.33;100.00;100849.09;7387228;19;20393;-58
2022/10/14 07:43:54;;;;;;;117.50;45.33;;;;;;;11.36;100.00;100851.81;7390668;19;20727;-54
2022/10/14 07:46:31;;;;;;;117.10;43.43;;;;;;;11.36;100.00;100854.41;7389126;19;20415;-58
2022/10/14 07:49:02;;;;;;;119.70;44.83;;;;;;;11.39;100.00;100857.09;7388994;19;20935;-53
2022/10/14 07:51:32;;;;;;;117.20;43.40;;;;;;;11.41;100.00;100868.41;7385202;19;20401;-58
2022/10/14 07:54:08;;;;;;;125.63;47.07;;;;;;;11.42;100.00;100870.16;7390557;19;20377;-56
2022/10/14 07:56:38;;;;;;;128.37;45.53;;;;;;;11.42;100.00;100870.16;7387517;19;20421;-58
2022/10/14 07:59:09;;;;;;;110.83;42.47;;;;;;;11.44;100.00;100880.56;7388257;19;20490;-56
2022/10/14 08:01:38;;;;;;;122.87;47.30;;;;;;;11.43;100.00;100877.06;7385340;19;20783;-51
2022/10/14 08:04:08;;;;;;;128.37;47.80;;;;;;;11.45;100.00;100880.59;7390087;19;20397;-57
2022/10/14 08:06:37;;;;;;;108.87;45.77;;;;;;;11.46;100.00;100881.50;7385351;19;20421;-60
2022/10/14 08:09:11;;;;;;;134.47;48.43;;;;;;;11.45;100.00;100890.94;7388188;19;20416;-59
2022/10/14 08:11:41;;;;;;;130.43;47.33;;;;;;;11.46;100.00;100892.72;7387038;19;20433;-56
2022/10/14 08:14:10;;;;;;;124.43;46.47;;;;;;;11.44;100.00;100902.09;7390209;19;20392;-60
2022/10/14 08:16:40;;;;;;;117.47;46.30;;;;;;;11.45;100.00;100901.25;7393174;19;20406;-58
2022/10/14 08:19:12;;;;;;;116.47;44.50;;;;;;;11.46;100.00;100902.16;7394516;19;20438;-60
2022/10/14 08:21:43;;;;;;;124.60;47.53;;;;;;;11.47;100.00;100907.41;7393690;19;20422;-62
2022/10/14 08:24:15;;;;;;;123.50;45.70;;;;;;;11.46;100.00;100909.91;7397167;19;20390;-57
2022/10/14 08:26:51;;;;;;;105.77;43.93;;;;;;;11.41;100.00;100904.56;7392803;19;20790;-58
2022/10/14 08:29:21;;;;;;;125.03;45.13;;;;;;;11.46;100.00;100903.06;7394034;19;20459;-59
2022/10/14 08:31:51;;;;;;;111.67;45.37;;;;;;;11.48;100.00;100909.16;7390526;19;20449;-56
2022/10/14 08:34:23;;;;;;;108.00;44.70;;;;;;;11.45;100.00;100918.47;7397185;19;20420;-55
2022/10/14 08:36:52;;;;;;;115.83;43.57;;;;;;;11.48;100.00;100919.47;7392603;19;20992;-54
2022/10/14 08:39:25;;;;;;;112.67;45.03;;;;;;;11.50;100.00;100918.66;7396390;19;20379;-55
2022/10/14 08:42:18;;;;;;;112.90;44.73;;;;;;;11.56;100.00;100908.56;7391840;19;20793;-56
2022/10/14 08:44:53;;;;;;;98.07;42.07;;;;;;;11.54;100.00;100920.56;7395513;19;20402;-56
2022/10/14 08:47:25;;;;;;;101.60;43.40;;;;;;;11.57;100.00;100910.34;7391425;19;20444;-51
2022/10/14 08:50:01;;;;;;;98.20;44.10;;;;;;;11.63;100.00;100915.75;7395440;19;20378;-55
2022/10/14 08:52:33;;;;;;;98.20;41.90;;;;;;;11.71;100.00;100922.13;7388662;19;20488;-59
2022/10/14 08:55:23;;;;;;;93.80;43.57;;;;;;;11.82;100.00;100921.66;7396225;19;20388;-57
2022/10/14 08:57:55;;;;;;;92.87;43.17;;;;;;;11.83;100.00;100910.47;7389797;19;20447;-61
2022/10/14 09:00:25;;;;;;;90.77;41.90;;;;;;;11.88;100.00;100922.78;7395172;19;20745;-55
2022/10/14 09:02:54;;;;;;;92.33;43.13;;;;;;;12.00;100.00;100921.50;7390141;19;20414;-55
2022/10/14 09:05:25;;;;;;;93.23;43.57;;;;;;;12.00;100.00;100916.31;7395686;19;20386;-57
2022/10/14 09:07:57;;;;;;;81.23;39.90;;;;;;;11.90;100.00;100920.25;7390243;19;20418;-59
2022/10/14 09:10:34;;;;;;;89.60;42.03;;;;;;;11.97;100.00;100917.09;7392968;19;20375;-57
2022/10/14 09:13:11;;;;;;;93.13;41.80;;;;;;;12.04;100.00;100931.16;7387283;19;20444;-56
2022/10/14 09:15:43;;;;;;;85.17;36.80;;;;;;;12.19;100.00;100938.63;7395389;19;20388;-55
2022/10/14 09:18:22;;;;;;;81.30;38.60;;;;;;;12.20;100.00;100950.72;7384461;19;20436;-59
2022/10/14 09:20:52;;;;;;;80.07;40.00;;;;;;;12.38;100.00;100949.66;7393087;19;21261;-58
2022/10/14 09:23:24;;;;;;;78.93;39.00;;;;;;;12.49;100.00;100953.53;7370617;19;20422;-58
2022/10/14 09:26:00;;;;;;;67.93;33.47;;;;;;;12.32;100.00;100964.94;7395168;19;20775;-54
2022/10/14 09:28:35;;;;;;;68.57;34.40;;;;;;;12.26;100.00;100974.25;7386202;19;20409;-55
2022/10/14 09:31:05;;;;;;;70.73;35.33;;;;;;;12.38;100.00;100983.28;7389871;19;20419;-57
2022/10/14 09:33:38;;;;;;;62.50;31.57;;;;;;;12.29;100.00;100997.66;7353276;19;20412;-55
2022/10/14 09:36:14;;;;;;;64.57;32.60;;;;;;;12.37;100.00;101002.25;7399116;19;20489;-61
2022/10/14 09:38:43;;;;;;;60.20;28.90;;;;;;;12.32;100.00;101007.25;7388956;19;20459;-55
2022/10/14 09:41:17;;;;;;;63.30;28.93;;;;;;;12.41;100.00;101006.72;7393038;19;20388;-56
2022/10/14 09:44:20;;;;;;;55.63;27.43;;;;;;;12.45;100.00;101003.41;7394862;19;20474;-56
2022/10/14 09:46:52;;;;;;;55.40;29.77;;;;;;;12.76;100.00;101012.31;7389662;19;20408;-58
2022/10/14 09:49:24;;;;;;;61.60;29.70;;;;;;;13.00;100.00;101011.44;7391964;19;20394;-51
2022/10/14 09:51:55;;;;;;;58.67;30.13;;;;;;;12.69;100.00;101012.91;7383105;19;20980;-59
2022/10/14 09:54:26;;;;;;;61.50;31.00;;;;;;;12.70;100.00;101009.50;7397569;19;20416;-61
2022/10/14 09:57:08;;;;;;;57.73;30.10;;;;;;;12.83;100.00;101006.53;7392498;19;20411;-58
2022/10/14 09:59:49;;;;;;;79.30;33.53;;;;;;;12.79;100.00;101009.84;7393835;19;20380;-57
2022/10/14 10:02:23;;;;;;;111.87;40.03;;;;;;;12.79;100.00;100996.00;7388576;19;20420;-59
2022/10/14 10:04:56;;;;;;;57.77;27.87;;;;;;;13.08;100.00;100997.06;7393931;19;20919;-58
2022/10/14 10:07:30;;;;;;;66.63;30.40;;;;;;;13.21;100.00;100994.91;7386621;19;20423;-58
2022/10/14 10:10:04;;;;;;;52.73;26.90;;;;;;;13.05;100.00;100991.78;7395342;19;20421;-56
2022/10/14 10:12:40;;;;;;;71.00;31.50;;;;;;;13.18;100.00;100992.22;7388708;19;20471;-56
2022/10/14 10:15:20;;;;;;;43.13;23.53;;;;;;;13.30;100.00;100990.03;7392855;19;20397;-57
2022/10/14 10:17:50;;;;;;;44.50;23.83;;;;;;;13.12;100.00;100986.81;7389824;19;20760;-57
2022/10/14 10:20:27;;;;;;;74.10;31.07;;;;;;;12.87;100.00;100984.22;7393226;19;20389;-58
2022/10/14 10:22:57;;;;;;;66.13;28.03;;;;;;;12.88;100.00;100979.94;7389364;19;20431;-62
2022/10/14 10:25:28;;;;;;;48.70;24.60;;;;;;;12.97;100.00;100982.84;7393580;19;20407;-59
2022/10/14 10:28:01;;;;;;;46.90;23.27;;;;;;;12.78;100.00;100986.50;7384510;19;20409;-57
2022/10/14 10:30:33;;;;;;;56.83;22.83;;;;;;;12.81;100.00;100986.59;7393287;19;20411;-57
2022/10/14 10:33:19;;;;;;;58.00;25.10;;;;;;;12.73;100.00;100982.84;7386136;19;20409;-59
2022/10/14 10:36:03;;;;;;;45.90;24.30;;;;;;;12.82;100.00;100978.88;7391157;19;20907;-59
2022/10/14 10:38:36;;;;;;;39.13;21.10;;;;;;;12.80;100.00;100979.66;7387267;19;20445;-57
2022/10/14 10:41:16;;;;;;;48.77;24.70;;;;;;;12.78;100.00;100971.81;7391879;19;20398;-57
2022/10/14 10:44:03;;;;;;;40.20;20.90;;;;;;;13.04;100.00;100971.91;7391587;19;20467;-60
2022/10/14 10:46:43;;;;;;;45.53;21.60;;;;;;;13.35;100.00;100967.75;7389252;19;20411;-57
2022/10/14 10:49:20;;;;;;;58.07;26.10;;;;;;;13.17;100.00;100961.97;7389554;19;20434;-59
2022/10/14 10:51:56;;;;;;;43.33;20.77;;;;;;;13.06;100.00;100956.38;7391507;19;20412;-60
2022/10/14 10:54:33;;;;;;;36.53;19.33;;;;;;;12.99;100.00;100960.47;7392098;19;20907;-60
2022/10/14 10:57:07;;;;;;;46.70;21.90;;;;;;;12.78;100.00;100958.88;7388609;19;20419;-57
2022/10/14 10:59:57;;;;;;;36.10;19.17;;;;;;;12.64;100.00;100953.22;7392106;19;20455;-62
2022/10/14 11:02:57;;;;;;;37.03;20.30;;;;;;;12.77;100.00;100949.34;7384297;19;20862;-56
2022/10/14 11:05:59;;;;;;;44.47;22.20;;;;;;;12.75;100.00;100948.41;7391051;19;20763;-58
2022/10/14 11:14:45;;;;;;;40.73;21.87;;;;;;;12.73;100.00;100947.50;7391647;19;20382;-59
2022/10/14 11:17:23;;;;;;;37.77;21.60;;;;;;;12.78;100.00;100939.88;7386021;19;20479;-60
2022/10/14 11:19:57;;;;;;;35.60;20.83;;;;;;;12.91;100.00;100925.66;7391504;19;20508;-60
2022/10/14 11:22:40;;;;;;;44.23;24.10;;;;;;;12.74;100.00;100936.31;7386699;19;20422;-53
2022/10/14 11:25:17;;;;;;;40.67;22.00;;;;;;;12.77;100.00;100938.13;7390388;19;20415;-61
2022/10/14 11:27:51;;;;;;;39.27;22.10;;;;;;;12.81;100.00;100927.94;7385981;19;20980;-59
2022/10/14 11:30:22;;;;;;;42.70;22.20;;;;;;;12.71;100.00;100927.56;7391251;19;20392;-58